createdAt,value
2022-11-29T00:01:31.735Z,71.60
2022-11-29T00:03:59.320Z,71.64
2022-11-29T00:06:29.341Z,71.61
2022-11-29T00:08:58.690Z,71.55
2022-11-29T00:11:47.503Z,71.53
2022-11-29T00:14:19.488Z,71.48
2022-11-29T00:16:52.113Z,71.63
2022-11-29T00:19:19.293Z,71.45
2022-11-29T00:21:46.605Z,71.41
2022-11-29T00:24:13.796Z,71.49
2022-11-29T00:26:40.872Z,71.55
2022-11-29T00:29:07.973Z,71.60
2022-11-29T00:31:35.123Z,71.44
2022-11-29T00:34:04.706Z,71.33
2022-11-29T00:36:31.779Z,71.45
2022-11-29T00:38:59.366Z,71.42
2022-11-29T00:41:26.492Z,71.50
2022-11-29T00:43:53.691Z,71.47
2022-11-29T00:46:20.818Z,71.42
2022-11-29T00:48:47.970Z,71.50
2022-11-29T00:51:15.041Z,71.41
2022-11-29T00:53:42.039Z,71.37
2022-11-29T00:56:09.112Z,71.24
2022-11-29T00:58:37.290Z,71.25
2022-11-29T01:01:05.171Z,71.18
2022-11-29T01:03:33.101Z,71.20
2022-11-29T01:06:05.369Z,71.21
2022-11-29T01:08:32.827Z,71.18
2022-11-29T01:11:12.162Z,71.21
2022-11-29T01:13:39.444Z,71.34
2022-11-29T01:16:07.156Z,71.36
2022-11-29T01:18:34.717Z,71.44
2022-11-29T01:21:06.709Z,71.22
2022-11-29T01:23:34.802Z,71.20
2022-11-29T01:29:03.870Z,71.27
2022-11-29T01:31:36.351Z,71.11
2022-11-29T01:34:05.569Z,71.35
2022-11-29T01:36:33.132Z,71.18
2022-11-29T01:39:01.353Z,71.11
2022-11-29T01:41:30.707Z,71.10
2022-11-29T01:44:26.863Z,71.05
2022-11-29T01:46:55.087Z,71.20
2022-11-29T01:49:34.425Z,71.28
2022-11-29T01:52:06.696Z,71.12
2022-11-29T01:54:42.292Z,71.10
2022-11-29T01:57:10.293Z,71.15
2022-11-29T01:59:42.052Z,71.18
2022-11-29T02:02:14.854Z,71.11
2022-11-29T02:04:45.148Z,71.20
2022-11-29T02:07:12.537Z,71.22
2022-11-29T02:09:39.583Z,71.14
2022-11-29T02:12:12.599Z,71.26
2022-11-29T02:14:51.934Z,71.18
2022-11-29T02:17:48.423Z,71.07
2022-11-29T02:20:21.639Z,71.03
2022-11-29T02:23:35.064Z,71.13
2022-11-29T02:26:02.178Z,70.95
2022-11-29T02:28:44.432Z,71.00
2022-11-29T02:31:30.808Z,70.99
2022-11-29T02:34:15.979Z,70.98
2022-11-29T02:37:11.522Z,70.98
2022-11-29T02:40:07.087Z,71.11
2022-11-29T02:42:55.567Z,71.09
2022-11-29T02:45:42.715Z,71.08
2022-11-29T02:48:40.233Z,71.03
2022-11-29T02:51:17.789Z,71.13
2022-11-29T02:53:56.128Z,70.98
2022-11-29T02:56:36.564Z,71.05
2022-11-29T02:59:23.503Z,71.06
2022-11-29T03:02:10.853Z,70.98
2022-11-29T03:04:58.458Z,71.04
2022-11-29T03:07:29.214Z,71.07
2022-11-29T03:10:05.713Z,71.14
2022-11-29T03:12:41.111Z,71.23
2022-11-29T03:15:24.397Z,71.19
2022-11-29T03:18:03.855Z,70.99
2022-11-29T03:20:52.275Z,71.15
2022-11-29T03:23:28.615Z,70.92
2022-11-29T03:25:59.605Z,70.97
2022-11-29T03:28:35.640Z,70.99
2022-11-29T03:31:08.803Z,71.00
2022-11-29T03:34:03.625Z,71.13
2022-11-29T03:36:51.266Z,71.14
2022-11-29T03:39:30.520Z,71.08
2022-11-29T03:42:06.504Z,71.03
2022-11-29T03:44:45.990Z,71.02
2022-11-29T03:47:19.825Z,70.88
2022-11-29T03:50:16.725Z,70.95
2022-11-29T03:52:55.498Z,70.83
2022-11-29T03:55:31.377Z,70.86
2022-11-29T03:58:30.323Z,70.90
2022-11-29T04:01:22.339Z,71.02
2022-11-29T04:04:11.139Z,70.92
2022-11-29T04:07:02.281Z,70.98
2022-11-29T04:09:50.168Z,70.99
2022-11-29T04:12:29.553Z,70.84
2022-11-29T04:15:21.894Z,70.88
2022-11-29T04:18:04.891Z,70.91
2022-11-29T04:20:44.169Z,70.96
2022-11-29T04:23:29.248Z,70.91
2022-11-29T04:26:35.215Z,70.86
2022-11-29T04:29:40.145Z,71.00
2022-11-29T04:32:34.713Z,70.83
2022-11-29T04:35:41.902Z,70.98
2022-11-29T04:38:23.826Z,71.05
2022-11-29T04:40:57.195Z,70.94
2022-11-29T04:43:43.393Z,70.93
2022-11-29T04:46:27.510Z,70.87
2022-11-29T04:49:03.857Z,70.84
2022-11-29T04:51:40.327Z,70.77
2022-11-29T04:54:25.936Z,70.85
2022-11-29T04:57:06.121Z,70.74
2022-11-29T05:00:02.867Z,70.90
2022-11-29T05:02:32.832Z,70.83
2022-11-29T05:05:38.788Z,70.71
2022-11-29T05:08:16.128Z,70.71
2022-11-29T05:11:12.232Z,70.84
2022-11-29T05:14:13.199Z,70.79
2022-11-29T05:16:49.027Z,70.76
2022-11-29T05:19:41.146Z,70.72
2022-11-29T05:22:24.884Z,70.75
2022-11-29T05:24:54.539Z,70.70
2022-11-29T05:27:42.914Z,70.79
2022-11-29T05:30:10.261Z,70.92
2022-11-29T05:32:43.964Z,70.87
2022-11-29T05:35:32.447Z,70.78
2022-11-29T05:38:28.450Z,70.85
2022-11-29T05:41:13.674Z,70.77
2022-11-29T05:43:51.524Z,70.73
2022-11-29T05:46:40.320Z,70.64
2022-11-29T05:49:26.119Z,70.59
2022-11-29T05:51:58.853Z,70.62
2022-11-29T05:54:44.689Z,70.54
2022-11-29T05:57:21.698Z,70.69
2022-11-29T05:59:51.254Z,70.77
2022-11-29T06:02:27.750Z,70.79
2022-11-29T06:05:17.252Z,70.79
2022-11-29T06:07:59.102Z,70.70
2022-11-29T06:10:32.991Z,70.60
2022-11-29T06:13:30.596Z,70.64
2022-11-29T06:16:23.860Z,70.63
2022-11-29T06:19:13.227Z,70.54
2022-11-29T06:21:54.177Z,70.50
2022-11-29T06:24:31.159Z,70.57
2022-11-29T06:27:18.465Z,70.72
2022-11-29T06:29:59.912Z,70.66
2022-11-29T06:32:43.324Z,70.62
2022-11-29T06:35:22.249Z,70.53
2022-11-29T06:37:53.882Z,70.55
2022-11-29T06:40:21.543Z,70.50
2022-11-29T06:42:49.101Z,70.48
2022-11-29T06:45:16.615Z,70.62
2022-11-29T06:47:52.851Z,70.62
2022-11-29T06:50:33.085Z,70.44
2022-11-29T06:53:29.495Z,70.55
2022-11-29T06:56:14.487Z,70.57
2022-11-29T06:58:51.290Z,70.59
2022-11-29T07:01:40.494Z,70.55
2022-11-29T07:04:26.962Z,70.60
2022-11-29T07:06:54.419Z,70.62
2022-11-29T07:09:25.718Z,70.41
2022-11-29T07:11:53.125Z,70.45
2022-11-29T07:14:20.505Z,70.56
2022-11-29T07:17:18.939Z,70.46
2022-11-29T07:20:03.676Z,70.43
2022-11-29T07:22:54.048Z,70.59
2022-11-29T07:25:28.955Z,70.61
2022-11-29T07:28:05.041Z,70.52
2022-11-29T07:30:45.118Z,70.49
2022-11-29T07:33:25.195Z,70.38
2022-11-29T07:36:01.589Z,70.38
2022-11-29T07:38:56.780Z,70.40
2022-11-29T07:41:45.914Z,70.45
2022-11-29T07:44:28.321Z,70.54
2022-11-29T07:46:55.369Z,70.51
2022-11-29T07:49:22.469Z,70.42
2022-11-29T07:51:49.774Z,70.34
2022-11-29T07:54:19.355Z,70.45
2022-11-29T07:56:46.481Z,70.32
2022-11-29T07:59:14.766Z,70.33
2022-11-29T08:01:42.383Z,70.40
2022-11-29T08:04:09.725Z,70.34
2022-11-29T08:06:36.824Z,70.46
2022-11-29T08:09:04.693Z,70.46
2022-11-29T08:11:31.849Z,70.36
2022-11-29T08:14:04.113Z,70.38
2022-11-29T08:16:31.744Z,70.45
2022-11-29T08:18:58.904Z,70.44
2022-11-29T08:21:26.383Z,70.28
2022-11-29T08:23:53.482Z,70.38
2022-11-29T08:26:22.773Z,70.40
2022-11-29T08:28:52.981Z,70.33
2022-11-29T08:31:20.862Z,70.30
2022-11-29T08:33:48.127Z,70.42
2022-11-29T08:36:18.609Z,70.45
2022-11-29T08:38:46.221Z,70.38
2022-11-29T08:41:16.004Z,70.16
2022-11-29T08:43:43.670Z,70.42
2022-11-29T08:46:16.676Z,70.55
2022-11-29T08:48:46.595Z,70.42
2022-11-29T08:51:14.795Z,70.40
2022-11-29T08:53:41.804Z,70.31
2022-11-29T08:59:06.174Z,70.42
2022-11-29T09:01:33.330Z,70.45
2022-11-29T09:04:00.457Z,70.43
2022-11-29T09:06:32.643Z,70.41
2022-11-29T09:09:01.124Z,70.36
2022-11-29T09:11:30.195Z,70.48
2022-11-29T09:13:59.957Z,70.34
2022-11-29T09:16:29.790Z,70.39
2022-11-29T09:18:57.511Z,70.36
2022-11-29T09:21:26.659Z,70.37
2022-11-29T09:23:58.899Z,70.41
2022-11-29T09:26:29.380Z,70.44
2022-11-29T09:29:00.095Z,70.32
2022-11-29T09:31:28.030Z,70.35
2022-11-29T09:33:56.030Z,70.32
2022-11-29T09:36:28.187Z,70.34
2022-11-29T09:39:02.788Z,70.28
2022-11-29T09:41:38.762Z,70.39
2022-11-29T09:44:33.735Z,70.31
2022-11-29T09:47:22.592Z,70.26
2022-11-29T09:50:32.062Z,70.22
2022-11-29T09:53:05.124Z,70.27
2022-11-29T09:55:56.186Z,70.33
2022-11-29T09:58:27.329Z,70.14
2022-11-29T10:01:00.195Z,70.21
2022-11-29T10:03:36.356Z,70.16
2022-11-29T10:06:11.926Z,70.24
2022-11-29T10:09:02.143Z,70.29
2022-11-29T10:11:41.450Z,70.17
2022-11-29T10:14:20.505Z,70.23
2022-11-29T10:17:36.455Z,70.05
2022-11-29T10:20:19.296Z,69.99
2022-11-29T10:22:53.694Z,70.03
2022-11-29T10:25:25.678Z,70.13
2022-11-29T10:27:54.582Z,70.15
2022-11-29T10:30:22.232Z,70.13
2022-11-29T10:32:56.477Z,70.16
2022-11-29T10:35:24.064Z,70.11
2022-11-29T10:38:22.703Z,69.99
2022-11-29T10:40:47.470Z,69.84
2022-11-29T10:43:14.617Z,70.06
2022-11-29T10:45:50.809Z,69.97
2022-11-29T10:48:21.386Z,70.14
2022-11-29T10:50:50.230Z,70.22
2022-11-29T10:53:24.519Z,70.25
2022-11-29T10:56:16.913Z,70.11
2022-11-29T10:58:56.526Z,70.05
2022-11-29T11:01:24.917Z,70.01
2022-11-29T11:03:57.284Z,69.96
2022-11-29T11:06:28.659Z,69.92
2022-11-29T11:09:11.401Z,70.08
2022-11-29T11:11:39.407Z,69.98
2022-11-29T11:14:23.415Z,70.02
2022-11-29T11:16:50.826Z,70.17
2022-11-29T11:19:34.765Z,70.26
2022-11-29T11:22:03.378Z,70.15
2022-11-29T11:24:33.275Z,70.17
2022-11-29T11:27:01.209Z,70.15
2022-11-29T11:29:36.656Z,70.12
2022-11-29T11:32:05.188Z,70.00
2022-11-29T11:34:37.772Z,70.02
2022-11-29T11:37:24.555Z,70.10
2022-11-29T11:39:54.170Z,70.27
2022-11-29T11:42:38.466Z,70.17
2022-11-29T11:45:11.603Z,69.98
2022-11-29T11:47:52.859Z,70.07
2022-11-29T11:50:49.426Z,70.07
2022-11-29T11:53:27.696Z,70.16
2022-11-29T11:56:09.763Z,70.10
2022-11-29T11:58:51.965Z,70.02
2022-11-29T12:01:25.351Z,70.10
2022-11-29T12:04:02.574Z,69.96
2022-11-29T12:06:40.221Z,69.87
2022-11-29T12:09:39.580Z,69.89
2022-11-29T12:12:20.091Z,69.82
2022-11-29T12:14:53.154Z,69.90
2022-11-29T12:17:28.140Z,69.98
2022-11-29T12:20:13.261Z,70.09
2022-11-29T12:22:48.760Z,70.16
2022-11-29T12:25:22.793Z,70.05
2022-11-29T12:27:51.071Z,70.07
2022-11-29T12:30:19.532Z,70.01
2022-11-29T12:33:01.707Z,69.97
2022-11-29T12:35:53.153Z,69.94
2022-11-29T12:38:48.487Z,70.10
2022-11-29T12:41:21.295Z,70.11
2022-11-29T12:44:05.190Z,70.13
2022-11-29T12:46:33.804Z,69.99
2022-11-29T12:49:08.320Z,70.05
2022-11-29T12:51:46.967Z,69.93
2022-11-29T12:54:35.954Z,70.04
2022-11-29T12:57:29.654Z,69.90
2022-11-29T13:00:03.676Z,70.07
2022-11-29T13:02:33.909Z,70.03
2022-11-29T13:05:20.237Z,70.06
2022-11-29T13:07:58.320Z,70.01
2022-11-29T13:10:33.431Z,69.85
2022-11-29T13:13:17.786Z,70.01
2022-11-29T13:16:27.696Z,69.98
2022-11-29T13:18:57.910Z,70.00
2022-11-29T13:21:44.194Z,70.00
2022-11-29T13:24:18.892Z,70.00
2022-11-29T13:26:46.428Z,69.94
2022-11-29T13:29:17.617Z,69.81
2022-11-29T13:31:46.884Z,69.76
2022-11-29T13:34:24.233Z,69.69
2022-11-29T13:37:00.757Z,69.76
2022-11-29T13:39:52.124Z,69.92
2022-11-29T13:42:19.196Z,69.89
2022-11-29T13:45:06.113Z,69.95
2022-11-29T13:47:33.228Z,69.77
2022-11-29T13:50:26.549Z,69.97
2022-11-29T13:53:03.658Z,69.94
2022-11-29T13:55:31.666Z,69.86
2022-11-29T13:58:16.895Z,69.94
2022-11-29T14:00:45.026Z,69.78
2022-11-29T14:03:24.438Z,69.78
2022-11-29T14:05:54.277Z,69.89
2022-11-29T14:08:24.143Z,69.91
2022-11-29T14:10:54.519Z,69.88
2022-11-29T14:13:27.530Z,69.91
2022-11-29T14:16:00.403Z,69.90
2022-11-29T14:18:36.708Z,69.78
2022-11-29T14:21:04.904Z,69.83
2022-11-29T14:23:41.042Z,69.86
2022-11-29T14:26:08.089Z,69.80
2022-11-29T14:28:35.881Z,69.69
2022-11-29T14:31:04.640Z,69.78
2022-11-29T14:33:47.054Z,69.71
2022-11-29T14:36:35.758Z,69.71
2022-11-29T14:39:27.535Z,69.75
2022-11-29T14:42:14.739Z,69.83
2022-11-29T14:44:49.516Z,69.75
2022-11-29T14:47:24.188Z,69.90
2022-11-29T14:49:54.181Z,69.84
2022-11-29T14:52:29.037Z,69.64
2022-11-29T14:55:00.949Z,69.83
2022-11-29T14:57:50.170Z,69.91
2022-11-29T15:00:20.463Z,69.89
2022-11-29T15:02:49.806Z,69.81
2022-11-29T15:05:21.834Z,69.79
2022-11-29T15:08:03.502Z,69.71
2022-11-29T15:10:36.205Z,69.60
2022-11-29T15:13:04.686Z,69.68
2022-11-29T15:15:47.685Z,69.66
2022-11-29T15:18:17.657Z,69.68
2022-11-29T15:21:03.413Z,69.68
2022-11-29T15:23:41.137Z,69.73
2022-11-29T15:26:18.143Z,69.70
2022-11-29T15:28:45.699Z,69.77
2022-11-29T15:31:19.297Z,69.79
2022-11-29T15:33:48.940Z,69.77
2022-11-29T15:36:16.013Z,69.73
2022-11-29T15:38:54.298Z,69.79
2022-11-29T15:41:34.745Z,69.68
2022-11-29T15:44:04.882Z,69.61
2022-11-29T15:46:34.360Z,69.55
2022-11-29T15:49:23.865Z,69.66
2022-11-29T15:51:58.332Z,69.54
2022-11-29T15:54:34.088Z,69.50
2022-11-29T15:57:05.664Z,69.61
2022-11-29T15:59:50.377Z,69.53
2022-11-29T16:02:26.135Z,69.58
2022-11-29T16:04:57.126Z,69.56
2022-11-29T16:07:26.663Z,69.56
2022-11-29T16:09:58.539Z,69.60
2022-11-29T16:12:26.763Z,69.61
2022-11-29T16:14:57.117Z,69.70
2022-11-29T16:17:30.026Z,69.60
2022-11-29T16:20:16.530Z,69.63
2022-11-29T16:22:43.653Z,69.60
2022-11-29T16:25:19.842Z,69.44
2022-11-29T16:27:47.712Z,69.35
2022-11-29T16:30:24.023Z,69.46
2022-11-29T16:32:58.129Z,69.43
2022-11-29T16:35:28.183Z,69.51
2022-11-29T16:37:55.741Z,69.47
2022-11-29T16:40:25.018Z,69.43
2022-11-29T16:43:04.512Z,69.51
2022-11-29T16:45:36.246Z,69.51
2022-11-29T16:48:27.480Z,69.46
2022-11-29T16:51:09.939Z,69.47
2022-11-29T16:53:39.111Z,69.36
2022-11-29T16:56:10.359Z,69.39
2022-11-29T16:59:20.607Z,69.35
2022-11-29T17:01:28.371Z,69.42
2022-11-29T17:03:57.210Z,69.37
2022-11-29T17:06:25.382Z,69.32
2022-11-29T17:08:54.505Z,69.30
2022-11-29T17:11:22.063Z,69.38
2022-11-29T17:13:50.371Z,69.36
2022-11-29T17:16:20.096Z,69.33
2022-11-29T17:18:47.688Z,69.31
2022-11-29T17:21:24.028Z,69.41
2022-11-29T17:23:51.334Z,69.43
2022-11-29T17:26:19.200Z,69.45
2022-11-29T17:28:49.730Z,69.39
2022-11-29T17:31:20.500Z,69.43
2022-11-29T17:33:48.287Z,69.21
2022-11-29T17:36:17.786Z,69.30
2022-11-29T17:38:45.656Z,69.31
2022-11-29T17:41:14.905Z,69.22
2022-11-29T17:43:42.438Z,69.10
2022-11-29T17:46:15.122Z,69.28
2022-11-29T17:48:43.091Z,69.22
2022-11-29T17:51:29.240Z,69.31
2022-11-29T17:53:58.739Z,69.38
2022-11-29T17:56:25.788Z,69.28
2022-11-29T17:58:54.477Z,69.20
2022-11-29T18:01:23.963Z,69.23
2022-11-29T18:03:56.130Z,69.26
2022-11-29T18:06:25.682Z,69.30
2022-11-29T18:08:57.209Z,69.29
2022-11-29T18:11:41.649Z,69.34
2022-11-29T18:14:18.210Z,69.35
2022-11-29T18:16:45.775Z,69.20
2022-11-29T18:19:15.817Z,69.19
2022-11-29T18:21:43.425Z,69.15
2022-11-29T18:24:10.733Z,69.06
2022-11-29T18:26:39.172Z,69.11
2022-11-29T18:29:06.802Z,69.17
2022-11-29T18:31:36.969Z,69.16
2022-11-29T18:34:07.286Z,69.10
2022-11-29T18:36:37.261Z,69.18
2022-11-29T18:39:08.742Z,69.09
2022-11-29T18:41:35.836Z,69.10
2022-11-29T18:44:09.591Z,69.08
2022-11-29T18:46:38.407Z,69.14
2022-11-29T18:49:08.232Z,69.15
2022-11-29T18:51:36.580Z,69.11
2022-11-29T18:54:06.027Z,69.11
2022-11-29T18:56:34.817Z,68.98
2022-11-29T18:59:05.512Z,68.97
2022-11-29T19:01:35.631Z,69.04
2022-11-29T19:04:02.720Z,69.06
2022-11-29T19:06:38.983Z,69.12
2022-11-29T19:09:11.312Z,69.11
2022-11-29T19:11:38.869Z,68.91
2022-11-29T19:14:14.226Z,69.03
2022-11-29T19:16:43.768Z,69.00
2022-11-29T19:19:11.688Z,69.04
2022-11-29T19:21:40.093Z,68.89
2022-11-29T19:24:14.099Z,68.94
2022-11-29T19:26:44.555Z,68.88
2022-11-29T19:29:13.502Z,68.75
2022-11-29T19:31:41.221Z,68.85
2022-11-29T19:34:08.341Z,68.82
2022-11-29T19:36:42.967Z,68.99
2022-11-29T19:39:13.083Z,68.82
2022-11-29T19:41:42.463Z,68.98
2022-11-29T19:44:10.327Z,68.93
2022-11-29T19:46:40.492Z,68.93
2022-11-29T19:49:09.338Z,68.91
2022-11-29T19:51:36.770Z,68.85
2022-11-29T19:54:07.454Z,68.91
2022-11-29T19:56:34.681Z,68.73
2022-11-29T19:59:01.801Z,68.75
2022-11-29T20:01:37.747Z,68.95
2022-11-29T20:04:05.148Z,68.87
2022-11-29T20:06:32.191Z,68.89
2022-11-29T20:08:59.265Z,68.84
2022-11-29T20:11:26.802Z,68.82
2022-11-29T20:13:59.053Z,68.92
2022-11-29T20:16:27.478Z,68.89
2022-11-29T20:18:55.241Z,68.75
2022-11-29T20:21:25.492Z,68.94
2022-11-29T20:24:19.591Z,68.92
2022-11-29T20:26:48.366Z,68.79
2022-11-29T20:29:16.302Z,68.72
2022-11-29T20:31:50.050Z,68.82
2022-11-29T20:34:18.643Z,68.81
2022-11-29T20:37:23.657Z,68.86
2022-11-29T20:39:58.359Z,68.74
2022-11-29T20:43:02.760Z,68.78
2022-11-29T20:45:30.171Z,68.87
2022-11-29T20:48:12.216Z,68.75
2022-11-29T20:50:40.389Z,68.84
2022-11-29T20:53:38.159Z,68.67
2022-11-29T20:56:06.717Z,68.64
2022-11-29T20:58:34.227Z,68.83
2022-11-29T21:01:02.015Z,68.75
2022-11-29T21:03:29.475Z,68.76
2022-11-29T21:05:57.828Z,68.68
2022-11-29T21:08:26.695Z,68.79
2022-11-29T21:10:54.460Z,68.82
2022-11-29T21:13:23.043Z,68.73
2022-11-29T21:15:50.435Z,68.80
2022-11-29T21:18:22.644Z,68.74
2022-11-29T21:21:00.212Z,68.80
2022-11-29T21:23:48.204Z,68.74
2022-11-29T21:26:40.074Z,68.73
2022-11-29T21:29:16.067Z,68.67
2022-11-29T21:31:45.048Z,68.75
2022-11-29T21:34:12.107Z,68.64
2022-11-29T21:36:39.769Z,68.55
2022-11-29T21:39:08.125Z,68.60
2022-11-29T21:41:35.172Z,68.53
2022-11-29T21:44:07.436Z,68.47
2022-11-29T21:46:35.328Z,68.49
2022-11-29T21:49:02.460Z,68.69
2022-11-29T21:51:29.511Z,68.62
2022-11-29T21:53:56.481Z,68.69
2022-11-29T21:56:23.659Z,68.71
2022-11-29T21:58:50.758Z,68.67
2022-11-29T22:01:19.826Z,68.69
2022-11-29T22:03:47.956Z,68.62
2022-11-29T22:06:18.714Z,68.76
2022-11-29T22:08:46.812Z,68.70
2022-11-29T22:11:32.210Z,68.65
2022-11-29T22:14:19.919Z,68.75
2022-11-29T22:16:52.880Z,68.63
2022-11-29T22:19:28.171Z,68.57
2022-11-29T22:21:59.908Z,68.52
2022-11-29T22:24:29.829Z,68.56
2022-11-29T22:26:57.330Z,68.62
2022-11-29T22:29:25.075Z,68.61
2022-11-29T22:31:54.983Z,68.50
2022-11-29T22:34:25.319Z,68.56
2022-11-29T22:36:52.664Z,68.67
2022-11-29T22:39:19.791Z,68.66
2022-11-29T22:41:53.709Z,68.61
2022-11-29T22:44:21.758Z,68.51
2022-11-29T22:46:49.197Z,68.59
2022-11-29T22:49:16.561Z,68.46
2022-11-29T22:51:43.780Z,68.52
2022-11-29T22:54:17.592Z,68.62
2022-11-29T22:56:46.049Z,68.47
2022-11-29T22:59:13.224Z,68.44
2022-11-29T23:01:41.985Z,68.45
2022-11-29T23:04:10.392Z,68.49
2022-11-29T23:06:42.538Z,68.52
2022-11-29T23:09:19.057Z,68.60
2022-11-29T23:11:51.038Z,68.62
2022-11-29T23:14:19.399Z,68.55
2022-11-29T23:16:46.799Z,68.56
2022-11-29T23:19:16.278Z,68.55
2022-11-29T23:21:45.769Z,68.48
2022-11-29T23:24:14.686Z,68.54
2022-11-29T23:26:45.340Z,68.48
2022-11-29T23:29:15.846Z,68.49
2022-11-29T23:31:43.383Z,68.38
2022-11-29T23:34:10.561Z,68.50
2022-11-29T23:36:37.710Z,68.40
2022-11-29T23:39:06.810Z,68.45
2022-11-29T23:41:35.661Z,68.37
2022-11-29T23:44:06.666Z,68.48
2022-11-29T23:46:35.278Z,68.50
2022-11-29T23:49:02.621Z,68.51
2022-11-29T23:51:30.037Z,68.51
2022-11-29T23:53:57.054Z,68.49
2022-11-29T23:56:24.177Z,68.31
2022-11-29T23:58:51.242Z,68.61
